Kerrville, Texas
Current Conditions -  °F | °C
As of 9:55 AM on Friday 31 Oct 2014 (Local Time) from KERV Reporting Station
Clear Clear  
Wind Chill: 63°   Ceiling: Unl
Heat Index: 63°   Visibility: 10mi
Dew Point: 49°   Wind: 10mph
Humidity: 62%   Direction: 20°NNE
Pressure: 30.31"   Gusts: NA
Location:  30.05°N, 99.14°W
Report Text: KERV 311455Z AUTO 02009KT 10SM CLR 17/10 A3031 RMK AO2 T01700097
Loading
Personal Weather Stations






























Interactive Weather Map
Tropical Storm Tracking
New forecast layout! Learn more

10-Day Weather Forecast

Advertisements
Track Severe Weather on mobile